Time;durP1;ratioP1;P1;durP2;ratioP2;P2;SDS_P1;SDS_P2;PMS_P1;PMS_P2;Temp;Humidity;BMP_temperature;BMP_pressure;BME280_temperature;BME280_humidity;BME280_pressure;Samples;Min_cycle;Max_cycle;Signal;HPM_P1;HPM_P2
2022/10/26 00:01:06;;;;;;;15.07;13.47;;;10.50;99.90;;;;;;4917335;29;20472;-77
2022/10/26 00:03:36;;;;;;;13.83;12.43;;;10.50;99.90;;;;;;4917521;29;20448;-77
2022/10/26 00:06:06;;;;;;;15.97;13.90;;;10.50;99.90;;;;;;4918777;29;20456;-77
2022/10/26 00:08:35;;;;;;;14.67;13.37;;;10.50;99.90;;;;;;4919163;29;20850;-77
2022/10/26 00:11:05;;;;;;;13.97;12.70;;;10.50;99.90;;;;;;4918866;29;20468;-77
2022/10/26 00:13:34;;;;;;;13.30;11.90;;;10.50;99.90;;;;;;4917498;29;20449;-76
2022/10/26 00:16:08;;;;;;;13.87;12.57;;;10.50;99.90;;;;;;4917214;29;20810;-77
2022/10/26 00:18:36;;;;;;;14.60;13.20;;;10.50;99.90;;;;;;4917216;29;20866;-77
2022/10/26 00:21:05;;;;;;;14.40;13.00;;;10.50;99.90;;;;;;4919023;29;21072;-76
2022/10/26 00:23:33;;;;;;;15.33;13.80;;;10.50;99.90;;;;;;4918543;29;20451;-76
2022/10/26 00:26:02;;;;;;;15.30;13.70;;;10.40;99.90;;;;;;4918640;29;20448;-77
2022/10/26 00:28:31;;;;;;;15.07;13.67;;;10.40;99.90;;;;;;4918229;29;20491;-77
2022/10/26 00:31:07;;;;;;;16.17;14.27;;;10.40;99.90;;;;;;4916903;29;20464;-76
2022/10/26 00:33:36;;;;;;;16.07;14.00;;;10.40;99.90;;;;;;4917103;29;20464;-77
2022/10/26 00:36:04;;;;;;;15.13;13.73;;;10.40;99.90;;;;;;4917409;29;20447;-77
2022/10/26 00:38:32;;;;;;;17.10;15.43;;;10.40;99.90;;;;;;4918011;29;20938;-77
2022/10/26 00:41:00;;;;;;;15.10;13.70;;;10.40;99.90;;;;;;4916675;29;20843;-77
2022/10/26 00:43:38;;;;;;;15.67;14.07;;;10.40;99.90;;;;;;4916732;29;20986;-77
2022/10/26 00:46:11;;;;;;;15.43;13.93;;;10.40;99.90;;;;;;4918251;29;20907;-77
2022/10/26 00:48:44;;;;;;;15.77;14.20;;;10.40;99.90;;;;;;4917881;29;20460;-77
2022/10/26 00:51:19;;;;;;;16.07;14.40;;;10.30;99.90;;;;;;4918132;29;20469;-76
2022/10/26 00:53:47;;;;;;;15.87;14.27;;;10.30;99.90;;;;;;4918091;29;20436;-76
2022/10/26 00:56:16;;;;;;;15.53;14.10;;;10.30;99.90;;;;;;4917881;29;20505;-77
2022/10/26 00:58:46;;;;;;;16.47;14.70;;;10.30;99.90;;;;;;4918559;29;20787;-76
2022/10/26 01:01:14;;;;;;;16.07;14.40;;;10.30;99.90;;;;;;4917876;29;20464;-76
2022/10/26 01:03:43;;;;;;;14.57;12.67;;;10.30;99.90;;;;;;4917833;29;20458;-76
2022/10/26 01:06:13;;;;;;;17.50;15.57;;;10.30;99.90;;;;;;4916428;29;20551;-76
2022/10/26 01:08:43;;;;;;;15.20;13.70;;;10.20;99.90;;;;;;4916481;29;20483;-76
2022/10/26 01:11:13;;;;;;;16.77;14.20;;;10.20;99.90;;;;;;4917765;29;20920;-76
2022/10/26 01:13:43;;;;;;;15.30;14.00;;;10.20;99.90;;;;;;4916306;29;20464;-76
2022/10/26 01:16:38;;;;;;;16.43;14.83;;;10.20;99.90;;;;;;4916350;29;20444;-76
2022/10/26 01:19:36;;;;;;;15.27;13.67;;;10.20;99.90;;;;;;4917430;29;20444;-76
2022/10/26 01:22:09;;;;;;;15.47;13.60;;;10.20;99.90;;;;;;4917415;29;20472;-76
2022/10/26 01:25:01;;;;;;;15.40;13.90;;;10.10;99.90;;;;;;4917826;29;20429;-76
2022/10/26 01:27:33;;;;;;;15.07;13.67;;;10.10;99.90;;;;;;4916299;29;20469;-77
2022/10/26 01:30:16;;;;;;;16.50;15.00;;;10.10;99.90;;;;;;4915995;29;20503;-77
2022/10/26 01:32:51;;;;;;;15.07;13.57;;;10.10;99.90;;;;;;4917560;29;20424;-76
2022/10/26 01:35:25;;;;;;;15.70;14.23;;;10.10;99.90;;;;;;4915996;29;20451;-76
2022/10/26 01:37:58;;;;;;;16.80;15.20;;;10.10;99.90;;;;;;4916073;29;20523;-77
2022/10/26 01:40:34;;;;;;;16.93;15.40;;;10.10;99.90;;;;;;4915888;29;20472;-76
2022/10/26 01:43:07;;;;;;;19.17;16.50;;;10.00;99.90;;;;;;4917371;29;20428;-76
2022/10/26 01:45:40;;;;;;;16.90;15.20;;;10.00;99.90;;;;;;4917358;29;20436;-77
2022/10/26 01:48:10;;;;;;;17.70;15.90;;;10.00;99.90;;;;;;4920586;29;20835;-77
2022/10/26 01:50:40;;;;;;;17.47;15.50;;;10.00;99.90;;;;;;4922336;29;20479;-77
2022/10/26 01:53:12;;;;;;;17.97;16.17;;;10.00;99.90;;;;;;4922357;29;20480;-77
2022/10/26 01:55:45;;;;;;;17.83;16.03;;;9.90;99.90;;;;;;4923657;29;20463;-77
2022/10/26 01:58:55;;;;;;;17.00;15.20;;;9.90;99.90;;;;;;4922137;29;20448;-77
2022/10/26 02:01:41;;;;;;;18.60;16.67;;;9.90;99.90;;;;;;4921960;29;20476;-76
2022/10/26 02:04:24;;;;;;;18.00;16.30;;;9.90;99.90;;;;;;4922064;29;20811;-76
2022/10/26 02:07:02;;;;;;;19.43;17.63;;;9.90;99.90;;;;;;4923586;29;20440;-76
2022/10/26 02:09:38;;;;;;;18.13;16.33;;;9.90;99.90;;;;;;4922065;29;20531;-76
2022/10/26 02:12:15;;;;;;;20.23;18.00;;;9.90;99.90;;;;;;4921990;29;20993;-76
2022/10/26 02:14:49;;;;;;;21.60;19.40;;;9.80;99.90;;;;;;4922109;29;20539;-77
2022/10/26 02:17:27;;;;;;;23.87;21.57;;;9.80;99.90;;;;;;4921972;29;20601;-76
2022/10/26 02:20:00;;;;;;;21.97;19.87;;;9.80;99.90;;;;;;4923513;29;20440;-77
2022/10/26 02:22:33;;;;;;;21.60;19.50;;;9.80;99.90;;;;;;4923740;29;20428;-77
2022/10/26 02:25:07;;;;;;;23.67;21.37;;;9.80;99.90;;;;;;4923520;29;20420;-76
2022/10/26 02:27:41;;;;;;;25.80;23.13;;;9.80;99.90;;;;;;4921830;29;20478;-76
2022/10/26 02:30:12;;;;;;;20.80;19.03;;;9.80;99.90;;;;;;4923388;29;20492;-75
2022/10/26 02:32:48;;;;;;;24.83;22.17;;;9.80;99.90;;;;;;4921890;29;20823;-77
2022/10/26 02:35:20;;;;;;;24.43;22.00;;;9.80;99.90;;;;;;4922264;29;20452;-76
2022/10/26 02:37:50;;;;;;;24.57;22.20;;;9.80;99.90;;;;;;4922992;29;20914;-77
2022/10/26 02:40:23;;;;;;;23.83;21.40;;;9.80;99.90;;;;;;4921902;29;20444;-77
2022/10/26 02:42:52;;;;;;;24.00;21.57;;;9.70;99.90;;;;;;4923243;29;20520;-77
2022/10/26 02:45:25;;;;;;;23.13;20.90;;;9.80;99.90;;;;;;4921687;29;20463;-76
2022/10/26 02:47:55;;;;;;;24.40;22.10;;;9.80;99.90;;;;;;4922809;29;21038;-76
2022/10/26 02:50:29;;;;;;;23.90;21.57;;;9.80;99.90;;;;;;4923107;29;20474;-76
2022/10/26 02:53:06;;;;;;;24.83;22.43;;;9.80;99.90;;;;;;4921704;29;20454;-76
2022/10/26 02:55:39;;;;;;;24.20;21.97;;;9.80;99.90;;;;;;4922959;29;20462;-76
2022/10/26 02:58:12;;;;;;;23.57;20.77;;;9.80;99.90;;;;;;4921355;29;20453;-76
2022/10/26 03:00:40;;;;;;;23.13;20.83;;;9.80;99.90;;;;;;4918191;29;20471;-76
2022/10/26 03:03:10;;;;;;;23.47;21.13;;;9.70;99.90;;;;;;4918613;29;20452;-77
2022/10/26 03:05:43;;;;;;;21.83;19.63;;;9.70;99.90;;;;;;4919760;29;20443;-76
2022/10/26 03:08:11;;;;;;;21.73;19.73;;;9.70;99.90;;;;;;4920012;29;20461;-76
2022/10/26 03:10:41;;;;;;;22.57;20.37;;;9.70;99.90;;;;;;4918414;29;20539;-76
2022/10/26 03:13:10;;;;;;;22.90;20.63;;;9.70;99.90;;;;;;4919995;29;20508;-76
2022/10/26 03:15:39;;;;;;;24.50;22.20;;;9.70;99.90;;;;;;4919807;29;20471;-76
2022/10/26 03:18:08;;;;;;;24.63;22.07;;;9.70;99.90;;;;;;4918330;29;20448;-77
2022/10/26 03:20:36;;;;;;;25.43;22.93;;;9.70;99.90;;;;;;4918194;29;20476;-76
2022/10/26 03:23:04;;;;;;;26.23;23.73;;;9.70;99.90;;;;;;4919365;29;20463;-76
2022/10/26 03:25:32;;;;;;;25.07;22.53;;;9.70;99.90;;;;;;4918163;29;20872;-76
2022/10/26 03:28:02;;;;;;;28.97;26.10;;;9.70;99.90;;;;;;4919264;29;20477;-76
2022/10/26 03:30:31;;;;;;;28.00;25.10;;;9.70;99.90;;;;;;4919217;29;20472;-76
2022/10/26 03:32:59;;;;;;;43.80;38.37;;;9.70;99.90;;;;;;4919230;29;20803;-76
2022/10/26 03:35:29;;;;;;;35.77;32.03;;;9.70;99.90;;;;;;4919188;29;20459;-77
2022/10/26 03:37:57;;;;;;;35.13;31.63;;;9.70;99.90;;;;;;4919119;29;20448;-77
2022/10/26 03:40:25;;;;;;;30.43;27.33;;;9.60;99.90;;;;;;4919293;29;21085;-77
2022/10/26 03:42:53;;;;;;;28.73;26.13;;;9.70;99.90;;;;;;4917824;29;20456;-77
2022/10/26 03:45:21;;;;;;;27.50;24.50;;;9.70;99.90;;;;;;4919035;29;20447;-77
2022/10/26 03:47:50;;;;;;;26.07;23.47;;;9.70;99.90;;;;;;4919279;29;20463;-76
2022/10/26 03:50:20;;;;;;;25.03;22.33;;;9.60;99.90;;;;;;4919409;29;20436;-76
2022/10/26 03:52:49;;;;;;;23.70;21.50;;;9.60;99.90;;;;;;4919387;29;20450;-76
2022/10/26 03:55:19;;;;;;;24.40;21.80;;;9.70;99.90;;;;;;4919114;29;20460;-76
2022/10/26 03:57:47;;;;;;;24.40;22.17;;;9.70;99.90;;;;;;4919047;29;20444;-76
2022/10/26 04:00:17;;;;;;;24.27;21.97;;;9.60;99.90;;;;;;4918746;29;20437;-76
2022/10/26 04:02:53;;;;;;;24.43;22.00;;;9.70;99.90;;;;;;4918938;29;20517;-76
2022/10/26 04:05:21;;;;;;;25.23;22.70;;;9.70;99.90;;;;;;4919072;29;20435;-76
2022/10/26 04:07:54;;;;;;;25.90;23.30;;;9.70;99.90;;;;;;4917494;29;20480;-76
2022/10/26 04:10:22;;;;;;;25.00;22.33;;;9.60;99.90;;;;;;4917361;29;20480;-76
2022/10/26 04:12:51;;;;;;;22.93;20.63;;;9.70;99.90;;;;;;4917354;29;20524;-76
2022/10/26 04:15:20;;;;;;;24.73;22.40;;;9.60;99.90;;;;;;4917557;29;20946;-76
2022/10/26 04:17:48;;;;;;;25.10;22.60;;;9.60;99.90;;;;;;4917246;29;20958;-76
2022/10/26 04:20:16;;;;;;;25.60;22.93;;;9.60;99.90;;;;;;4917072;29;20467;-76
2022/10/26 04:22:44;;;;;;;25.40;22.97;;;9.60;99.90;;;;;;4918682;29;20441;-76
2022/10/26 04:25:14;;;;;;;26.40;23.80;;;9.60;99.90;;;;;;4918753;29;20448;-76
2022/10/26 04:27:42;;;;;;;26.30;23.90;;;9.60;99.90;;;;;;4917080;29;20500;-76
2022/10/26 04:30:11;;;;;;;27.30;24.90;;;9.70;99.90;;;;;;4918662;29;20476;-77
2022/10/26 04:32:39;;;;;;;27.03;24.53;;;9.60;99.90;;;;;;4916922;29;20449;-77
2022/10/26 04:35:08;;;;;;;26.90;24.30;;;9.60;99.90;;;;;;4916939;29;20453;-77
2022/10/26 04:37:42;;;;;;;26.40;23.67;;;9.60;99.90;;;;;;4917078;29;20446;-77
2022/10/26 04:40:11;;;;;;;24.23;22.03;;;9.60;99.90;;;;;;4917018;29;20444;-77
2022/10/26 04:42:45;;;;;;;24.20;21.80;;;9.60;99.90;;;;;;4916832;29;20480;-77
2022/10/26 04:45:14;;;;;;;25.60;23.07;;;9.60;99.90;;;;;;4916849;29;20445;-77
2022/10/26 04:47:43;;;;;;;25.10;22.80;;;9.60;99.90;;;;;;4916780;29;20456;-77
2022/10/26 04:50:12;;;;;;;25.40;22.80;;;9.60;99.90;;;;;;4917733;29;20472;-77
2022/10/26 04:52:41;;;;;;;27.53;24.90;;;9.60;99.90;;;;;;4916942;29;20472;-77
2022/10/26 04:55:09;;;;;;;25.20;22.67;;;9.60;99.90;;;;;;4916561;29;20935;-77
2022/10/26 04:57:37;;;;;;;26.27;23.67;;;9.60;99.90;;;;;;4918083;29;20441;-77
2022/10/26 05:00:09;;;;;;;24.10;21.80;;;9.60;99.90;;;;;;4916856;29;20488;-77
2022/10/26 05:02:38;;;;;;;24.43;22.07;;;9.60;99.90;;;;;;4918392;29;20448;-77
2022/10/26 05:05:06;;;;;;;23.20;20.90;;;9.50;99.90;;;;;;4918185;29;20452;-77
2022/10/26 05:07:39;;;;;;;23.23;21.00;;;9.50;99.90;;;;;;4916468;29;20460;-77
2022/10/26 05:10:09;;;;;;;22.63;20.43;;;9.50;99.90;;;;;;4916341;29;20483;-77
2022/10/26 05:12:37;;;;;;;29.63;26.73;;;9.50;99.90;;;;;;4916368;29;20452;-77
2022/10/26 05:15:06;;;;;;;25.57;23.30;;;9.50;99.90;;;;;;4916885;29;20484;-77
2022/10/26 05:17:37;;;;;;;26.90;24.07;;;9.50;99.90;;;;;;4917629;29;20966;-77
2022/10/26 05:20:09;;;;;;;25.67;23.17;;;9.50;99.90;;;;;;4917405;29;20461;-77
2022/10/26 05:22:37;;;;;;;27.20;24.30;;;9.40;99.90;;;;;;4915917;29;20459;-77
2022/10/26 05:25:06;;;;;;;23.90;21.57;;;9.40;99.90;;;;;;4916239;29;20984;-77
2022/10/26 05:27:34;;;;;;;22.43;20.23;;;9.40;99.90;;;;;;4916244;29;21041;-77
2022/10/26 05:30:02;;;;;;;22.70;20.60;;;9.40;99.90;;;;;;4916102;29;20476;-77
2022/10/26 05:32:31;;;;;;;22.47;20.23;;;9.40;99.90;;;;;;4916101;29;20452;-76
2022/10/26 05:35:00;;;;;;;22.90;20.70;;;9.40;99.90;;;;;;4917691;29;20988;-76
2022/10/26 05:37:28;;;;;;;22.43;20.10;;;9.40;99.90;;;;;;4916023;29;20204;-77
2022/10/26 05:39:56;;;;;;;23.83;21.40;;;9.50;99.90;;;;;;4917690;29;20440;-77
2022/10/26 05:42:25;;;;;;;22.67;20.40;;;9.40;99.90;;;;;;4917560;29;20483;-77
2022/10/26 05:44:53;;;;;;;22.40;18.87;;;9.40;99.90;;;;;;4916042;29;20448;-77
2022/10/26 05:47:21;;;;;;;21.47;19.27;;;9.40;99.90;;;;;;4916172;29;20452;-76
2022/10/26 05:49:49;;;;;;;25.40;22.70;;;9.40;99.90;;;;;;4916057;29;20468;-76
2022/10/26 05:52:18;;;;;;;29.47;26.57;;;9.40;99.90;;;;;;4916025;29;20480;-76
2022/10/26 05:54:46;;;;;;;27.93;25.13;;;9.40;99.90;;;;;;4916959;29;20459;-77
2022/10/26 05:57:15;;;;;;;23.10;21.00;;;9.30;99.90;;;;;;4916166;29;20452;-76
2022/10/26 05:59:44;;;;;;;21.13;19.10;;;9.30;99.90;;;;;;4917641;29;20443;-76
2022/10/26 06:02:23;;;;;;;21.93;19.93;;;9.30;99.90;;;;;;4915824;29;20475;-76
2022/10/26 06:04:53;;;;;;;20.57;18.77;;;9.30;99.90;;;;;;4916065;29;20476;-76
2022/10/26 06:07:23;;;;;;;21.87;19.77;;;9.30;99.90;;;;;;4915994;29;20460;-76
2022/10/26 06:09:52;;;;;;;20.27;18.47;;;9.30;99.90;;;;;;4915672;29;20480;-76
2022/10/26 06:12:20;;;;;;;21.13;19.13;;;9.30;99.90;;;;;;4915638;29;20523;-77
2022/10/26 06:14:49;;;;;;;20.53;18.37;;;9.30;99.90;;;;;;4915700;29;20467;-77
2022/10/26 06:17:39;;;;;;;19.50;17.60;;;9.30;99.90;;;;;;4917174;29;20489;-76
2022/10/26 06:20:36;;;;;;;19.00;17.20;;;9.30;99.90;;;;;;4917131;29;20515;-76
2022/10/26 06:23:32;;;;;;;21.40;19.47;;;9.20;99.90;;;;;;4917221;29;20420;-76
2022/10/26 06:26:08;;;;;;;19.40;17.63;;;9.20;99.90;;;;;;4915646;29;20448;-76
2022/10/26 06:28:43;;;;;;;19.70;17.87;;;9.20;99.90;;;;;;4915643;29;21022;-76
2022/10/26 06:31:15;;;;;;;19.30;16.90;;;9.20;99.90;;;;;;4915432;29;20915;-76
2022/10/26 06:33:43;;;;;;;19.60;17.70;;;9.20;99.90;;;;;;4915718;29;20500;-77
2022/10/26 06:36:21;;;;;;;18.73;16.83;;;9.20;99.90;;;;;;4919165;29;20818;-77
2022/10/26 06:38:55;;;;;;;18.90;17.10;;;9.20;99.90;;;;;;4920645;29;20435;-76
2022/10/26 06:41:23;;;;;;;20.90;18.70;;;9.10;99.90;;;;;;4918939;29;21013;-75
2022/10/26 06:43:52;;;;;;;26.30;23.53;;;9.20;99.90;;;;;;4918898;29;20853;-76
2022/10/26 06:46:33;;;;;;;22.03;20.03;;;9.10;99.90;;;;;;4918957;29;20471;-76
2022/10/26 06:49:10;;;;;;;21.10;19.10;;;9.10;99.90;;;;;;4920123;29;20428;-76
2022/10/26 06:51:45;;;;;;;19.97;17.70;;;9.20;99.90;;;;;;4918633;29;20488;-76
2022/10/26 06:54:23;;;;;;;20.77;18.67;;;9.20;99.90;;;;;;4920347;29;20428;-77
2022/10/26 06:56:52;;;;;;;20.40;18.50;;;9.20;99.90;;;;;;4920452;29;20797;-77
2022/10/26 06:59:32;;;;;;;19.90;17.90;;;9.20;99.90;;;;;;4920121;29;20448;-76
2022/10/26 07:02:00;;;;;;;20.37;18.27;;;9.20;99.90;;;;;;4919042;29;20476;-76
2022/10/26 07:04:33;;;;;;;19.70;17.80;;;9.20;99.90;;;;;;4919060;29;20448;-76
2022/10/26 07:07:01;;;;;;;20.50;18.50;;;9.20;99.90;;;;;;4919849;29;20444;-76
2022/10/26 07:09:31;;;;;;;21.90;19.80;;;9.30;99.90;;;;;;4920116;29;20444;-75
2022/10/26 07:11:59;;;;;;;20.47;18.37;;;9.30;99.90;;;;;;4918636;29;20488;-76
2022/10/26 07:14:27;;;;;;;19.10;17.40;;;9.30;99.90;;;;;;4920213;29;20448;-76
2022/10/26 07:16:55;;;;;;;19.40;17.50;;;9.30;99.90;;;;;;4920336;29;20440;-76
2022/10/26 07:19:23;;;;;;;19.27;17.37;;;9.30;99.90;;;;;;4919980;29;20951;-76
2022/10/26 07:21:55;;;;;;;19.80;17.90;;;9.40;99.90;;;;;;4920089;29;20563;-76
2022/10/26 07:24:23;;;;;;;21.40;19.50;;;9.40;99.90;;;;;;4918393;29;20441;-76
2022/10/26 07:26:54;;;;;;;22.10;20.10;;;9.50;99.90;;;;;;4919853;29;20451;-76
2022/10/26 07:29:22;;;;;;;21.90;19.90;;;9.50;99.90;;;;;;4918654;29;20973;-76
2022/10/26 07:31:50;;;;;;;19.17;17.33;;;9.50;99.90;;;;;;4919620;29;20484;-76
2022/10/26 07:34:23;;;;;;;20.57;18.57;;;9.60;99.90;;;;;;4919484;29;20432;-76
2022/10/26 07:36:52;;;;;;;19.57;17.50;;;9.60;99.90;;;;;;4919409;29;20445;-76
2022/10/26 07:39:20;;;;;;;22.07;19.07;;;9.60;99.90;;;;;;4918062;29;20452;-76
2022/10/26 07:41:48;;;;;;;20.40;18.40;;;9.60;99.90;;;;;;4918393;29;20472;-76
2022/10/26 07:44:17;;;;;;;19.30;17.60;;;9.70;99.90;;;;;;4919581;29;20448;-76
2022/10/26 07:46:46;;;;;;;20.33;18.37;;;9.80;99.90;;;;;;4917748;29;20456;-76
2022/10/26 07:49:14;;;;;;;24.30;21.60;;;9.70;99.90;;;;;;4918318;29;20467;-76
2022/10/26 07:51:46;;;;;;;21.50;19.30;;;9.80;99.90;;;;;;4919768;29;20499;-76
2022/10/26 07:54:14;;;;;;;20.20;18.27;;;9.80;99.90;;;;;;4919845;29;20444;-76
2022/10/26 07:56:42;;;;;;;21.57;18.53;;;9.90;99.90;;;;;;4917884;29;20467;-76
2022/10/26 07:59:12;;;;;;;21.83;19.73;;;9.90;99.90;;;;;;4917949;29;20456;-76
2022/10/26 08:01:41;;;;;;;19.87;17.77;;;9.90;99.90;;;;;;4918995;29;20464;-76
2022/10/26 08:04:09;;;;;;;19.77;17.87;;;10.00;99.90;;;;;;4919193;29;20470;-75
2022/10/26 08:06:37;;;;;;;20.07;18.17;;;10.00;99.90;;;;;;4919756;29;20460;-76
2022/10/26 08:09:06;;;;;;;18.90;17.10;;;10.10;99.90;;;;;;4918281;29;20551;-76
2022/10/26 08:11:35;;;;;;;20.70;18.70;;;10.10;99.90;;;;;;4917814;29;20480;-76
2022/10/26 08:14:05;;;;;;;19.23;17.43;;;10.20;99.90;;;;;;4917880;29;20515;-76
2022/10/26 08:16:34;;;;;;;19.90;17.90;;;10.20;99.90;;;;;;4919195;29;20476;-76
2022/10/26 08:19:03;;;;;;;19.57;17.53;;;10.30;99.90;;;;;;4919513;29;20432;-76
2022/10/26 08:21:31;;;;;;;18.93;17.03;;;10.30;99.90;;;;;;4917576;29;20575;-76
2022/10/26 08:24:07;;;;;;;18.87;16.87;;;10.40;99.90;;;;;;4918936;29;20456;-76
2022/10/26 08:26:35;;;;;;;19.60;16.60;;;10.40;99.90;;;;;;4919106;29;20519;-76
2022/10/26 08:29:04;;;;;;;18.27;16.37;;;10.40;99.90;;;;;;4917388;29;20524;-76
2022/10/26 08:31:32;;;;;;;20.47;16.13;;;10.50;99.90;;;;;;4918132;29;20484;-76
2022/10/26 08:34:00;;;;;;;18.80;17.00;;;10.50;99.90;;;;;;4917299;29;20504;-76
2022/10/26 08:36:30;;;;;;;19.10;16.93;;;10.50;99.90;;;;;;4919314;29;20946;-76
2022/10/26 08:38:58;;;;;;;18.30;16.50;;;10.50;99.90;;;;;;4918892;29;20676;-76
2022/10/26 08:41:35;;;;;;;18.47;16.67;;;10.60;99.90;;;;;;4919061;29;21006;-76
2022/10/26 08:44:11;;;;;;;17.43;15.83;;;10.70;99.90;;;;;;4918825;29;20420;-75
2022/10/26 08:46:44;;;;;;;19.03;17.03;;;10.70;99.90;;;;;;4917292;29;20515;-75
2022/10/26 08:49:20;;;;;;;18.43;16.60;;;10.70;99.90;;;;;;4919456;29;20428;-75
2022/10/26 08:51:53;;;;;;;20.50;17.13;;;10.80;99.90;;;;;;4918775;29;20480;-76
2022/10/26 08:54:32;;;;;;;18.50;15.77;;;10.80;99.90;;;;;;4918921;29;20440;-76
2022/10/26 08:57:04;;;;;;;19.30;17.40;;;10.90;99.90;;;;;;4919179;29;20511;-76
2022/10/26 08:59:38;;;;;;;16.37;14.67;;;10.90;99.90;;;;;;4921978;29;20459;-76
2022/10/26 09:02:12;;;;;;;17.47;15.77;;;11.00;99.90;;;;;;4917947;29;20523;-76
2022/10/26 09:04:41;;;;;;;16.70;14.87;;;11.10;99.90;;;;;;4920265;29;20448;-76
2022/10/26 09:07:26;;;;;;;17.90;16.10;;;11.10;99.90;;;;;;4921249;29;20457;-76
2022/10/26 09:10:04;;;;;;;19.87;15.50;;;11.20;99.90;;;;;;4920635;29;20464;-76
2022/10/26 09:12:43;;;;;;;16.17;14.67;;;11.30;99.90;;;;;;4922175;29;21074;-76
2022/10/26 09:15:20;;;;;;;17.27;15.57;;;11.40;99.90;;;;;;4919561;29;20467;-76
2022/10/26 09:17:57;;;;;;;17.80;15.90;;;11.60;99.90;;;;;;4918250;29;20460;-76
2022/10/26 09:20:45;;;;;;;17.40;14.47;;;11.70;99.90;;;;;;4920838;29;20472;-76
2022/10/26 09:23:31;;;;;;;17.47;15.67;;;11.80;99.90;;;;;;4917436;29;20463;-76
2022/10/26 09:26:01;;;;;;;15.53;14.03;;;11.90;99.90;;;;;;4918413;29;20421;-76
2022/10/26 09:28:35;;;;;;;16.63;14.27;;;12.00;99.90;;;;;;4918022;29;20455;-76
2022/10/26 09:31:04;;;;;;;15.73;14.23;;;12.00;99.90;;;;;;4917961;29;20460;-76
2022/10/26 09:33:36;;;;;;;15.43;13.83;;;12.10;99.90;;;;;;4917766;29;20444;-76
2022/10/26 09:36:08;;;;;;;14.50;13.10;;;12.20;99.90;;;;;;4917978;29;20493;-76
2022/10/26 09:38:51;;;;;;;13.70;12.40;;;12.20;99.90;;;;;;4916525;29;20833;-76
2022/10/26 09:41:26;;;;;;;13.67;12.33;;;12.20;99.90;;;;;;4916671;29;20486;-76
2022/10/26 09:44:05;;;;;;;15.17;13.50;;;12.30;99.90;;;;;;4916710;29;20467;-75
2022/10/26 09:46:46;;;;;;;14.03;12.73;;;12.40;99.90;;;;;;4918100;29;20480;-76
2022/10/26 09:49:16;;;;;;;14.23;12.73;;;12.40;99.90;;;;;;4918060;29;20447;-75
2022/10/26 09:51:45;;;;;;;15.27;13.73;;;12.50;99.90;;;;;;4917739;29;20484;-76
2022/10/26 09:54:17;;;;;;;16.13;12.73;;;12.50;99.90;;;;;;4917639;29;20440;-75
2022/10/26 09:56:49;;;;;;;13.40;12.13;;;12.60;99.90;;;;;;4917821;29;20436;-76
2022/10/26 09:59:20;;;;;;;14.63;12.97;;;12.70;99.90;;;;;;4916305;29;20448;-76
2022/10/26 10:01:48;;;;;;;13.43;12.10;;;12.80;99.90;;;;;;4917838;29;20466;-75
2022/10/26 10:04:22;;;;;;;12.53;10.90;;;12.80;99.90;;;;;;4916253;29;21046;-76
2022/10/26 10:06:52;;;;;;;12.70;11.50;;;12.90;99.90;;;;;;4917394;29;20420;-76
2022/10/26 10:09:23;;;;;;;13.30;12.00;;;13.00;99.90;;;;;;4918536;29;20459;-76
2022/10/26 10:11:57;;;;;;;12.73;11.00;;;13.00;99.90;;;;;;4919843;29;20499;-75
2022/10/26 10:14:27;;;;;;;12.93;11.53;;;13.10;99.90;;;;;;4920882;29;20424;-76
2022/10/26 10:16:57;;;;;;;12.27;11.10;;;13.20;99.90;;;;;;4919572;29;20488;-76
2022/10/26 10:19:28;;;;;;;13.50;12.10;;;13.20;99.90;;;;;;4919454;29;20448;-75
2022/10/26 10:21:58;;;;;;;13.43;10.00;;;13.30;99.90;;;;;;4920954;29;20471;-76
2022/10/26 10:24:30;;;;;;;13.13;11.83;;;13.40;99.90;;;;;;4919369;29;20456;-76
2022/10/26 10:27:04;;;;;;;15.07;11.60;;;13.40;99.90;;;;;;4920801;29;20539;-76
2022/10/26 10:29:34;;;;;;;12.20;10.30;;;13.50;99.90;;;;;;4919344;29;20444;-75
2022/10/26 10:32:04;;;;;;;11.70;9.87;;;13.60;99.90;;;;;;4920581;29;20508;-76
2022/10/26 10:34:34;;;;;;;12.17;10.93;;;13.70;99.90;;;;;;4921185;29;20444;-75
2022/10/26 10:37:04;;;;;;;11.37;10.17;;;13.70;99.90;;;;;;4920676;29;20443;-76
2022/10/26 10:39:39;;;;;;;14.93;9.87;;;13.70;99.90;;;;;;4919063;29;20962;-76
2022/10/26 10:42:18;;;;;;;11.97;10.80;;;13.80;99.90;;;;;;4920580;29;20470;-76
2022/10/26 10:44:47;;;;;;;10.57;9.50;;;13.80;99.90;;;;;;4918960;29;20440;-76
2022/10/26 10:47:22;;;;;;;16.00;11.13;;;13.90;99.90;;;;;;4920238;29;20531;-76
2022/10/26 10:49:54;;;;;;;12.40;11.20;;;13.90;99.90;;;;;;4918998;29;20484;-76
2022/10/26 10:52:25;;;;;;;11.67;10.43;;;14.00;99.90;;;;;;4920114;29;20479;-74
2022/10/26 10:55:07;;;;;;;12.23;11.03;;;14.00;99.90;;;;;;4920155;29;20455;-75
2022/10/26 10:57:45;;;;;;;10.77;9.70;;;14.00;99.90;;;;;;4918812;29;20475;-75
2022/10/26 11:00:13;;;;;;;12.43;10.20;;;14.10;99.90;;;;;;4920345;29;20423;-75
2022/10/26 11:03:20;;;;;;;12.40;10.30;;;14.10;99.90;;;;;;4920302;29;20452;-75
2022/10/26 11:06:03;;;;;;;12.20;10.20;;;14.30;99.90;;;;;;4917615;29;20489;-75
2022/10/26 11:08:37;;;;;;;10.70;9.60;;;14.30;99.90;;;;;;4920046;29;20413;-75
2022/10/26 11:11:12;;;;;;;21.83;9.90;;;14.40;99.90;;;;;;4918560;29;20509;-75
2022/10/26 11:13:47;;;;;;;10.97;9.80;;;14.50;99.90;;;;;;4920000;29;20566;-74
2022/10/26 11:16:20;;;;;;;12.33;9.30;;;14.60;99.90;;;;;;4919902;29;20801;-75
2022/10/26 11:18:52;;;;;;;11.17;9.30;;;14.60;99.90;;;;;;4919930;29;20539;-74
2022/10/26 11:21:25;;;;;;;13.27;8.70;;;14.70;99.90;;;;;;4917478;29;20484;-75
2022/10/26 11:24:01;;;;;;;8.97;8.07;;;14.80;99.90;;;;;;4919734;29;20464;-74
2022/10/26 11:26:36;;;;;;;11.03;8.30;;;14.80;99.90;;;;;;4919525;29;20452;-75
2022/10/26 11:29:20;;;;;;;10.47;7.93;;;14.90;99.90;;;;;;4919438;29;20787;-75
2022/10/26 11:31:54;;;;;;;15.80;10.27;;;15.00;99.90;;;;;;4919617;29;20456;-75
2022/10/26 11:34:28;;;;;;;11.37;7.87;;;15.10;99.90;;;;;;4920179;29;20439;-75
2022/10/26 11:37:03;;;;;;;8.20;7.37;;;15.20;99.90;;;;;;4919313;29;20442;-75
2022/10/26 11:39:38;;;;;;;9.97;8.23;;;15.20;99.90;;;;;;4919517;29;20440;-75
2022/10/26 11:42:15;;;;;;;10.83;7.10;;;15.30;99.90;;;;;;4919463;29;20523;-74
2022/10/26 11:44:50;;;;;;;8.00;6.90;;;15.40;99.90;;;;;;4918043;29;20440;-75
2022/10/26 11:47:25;;;;;;;10.13;8.20;;;15.40;99.90;;;;;;4919521;29;20433;-75
2022/10/26 11:50:02;;;;;;;9.23;7.97;;;15.50;99.90;;;;;;4920010;29;20845;-75
2022/10/26 11:52:38;;;;;;;8.90;8.00;;;15.60;99.90;;;;;;4918947;29;20511;-75
2022/10/26 11:55:10;;;;;;;9.50;7.70;;;15.70;99.90;;;;;;4918938;29;20452;-75
2022/10/26 11:57:41;;;;;;;8.27;6.33;;;15.80;99.90;;;;;;4919192;29;20444;-75
2022/10/26 12:00:16;;;;;;;11.60;6.93;;;15.90;99.90;;;;;;4919066;29;20443;-74
2022/10/26 12:02:49;;;;;;;7.87;5.30;;;16.00;99.90;;;;;;4918787;29;20425;-75
2022/10/26 12:05:21;;;;;;;8.33;5.40;;;16.00;99.90;;;;;;4918976;29;20432;-74
2022/10/26 12:07:54;;;;;;;6.70;4.77;;;16.10;99.90;;;;;;4917520;29;20448;-74
2022/10/26 12:10:27;;;;;;;6.67;4.70;;;16.20;99.90;;;;;;4917655;29;20451;-74
2022/10/26 12:13:07;;;;;;;5.10;4.20;;;16.20;99.90;;;;;;4918561;29;20532;-74
2022/10/26 12:15:41;;;;;;;8.53;4.60;;;16.30;99.90;;;;;;4917455;29;20448;-74
2022/10/26 12:18:37;;;;;;;5.37;4.10;;;16.40;99.90;;;;;;4917268;29;20497;-74
2022/10/26 12:21:26;;;;;;;5.40;4.10;;;16.50;99.90;;;;;;4918374;29;20558;-74
2022/10/26 12:23:57;;;;;;;7.20;4.50;;;16.50;99.90;;;;;;4918708;29;20416;-74
2022/10/26 12:26:40;;;;;;;6.70;4.27;;;16.60;99.90;;;;;;4918628;29;20420;-75
2022/10/26 12:29:48;;;;;;;7.43;4.63;;;16.70;99.90;;;;;;4918255;29;20391;-74
2022/10/26 12:32:50;;;;;;;7.00;3.57;;;16.70;99.90;;;;;;4918198;29;20891;-75
2022/10/26 12:35:43;;;;;;;6.73;3.80;;;16.80;99.90;;;;;;4917037;29;20509;-74
2022/10/26 12:39:05;;;;;;;5.67;3.30;;;16.80;99.90;;;;;;4918436;29;20453;-74
2022/10/26 12:41:38;;;;;;;8.20;5.17;;;16.90;99.90;;;;;;4918236;29;20480;-74
2022/10/26 12:44:32;;;;;;;12.60;5.90;;;16.90;99.90;;;;;;4918618;29;20918;-72
2022/10/26 12:47:01;;;;;;;5.53;3.97;;;17.00;99.90;;;;;;4918709;29;20484;-74
2022/10/26 12:49:59;;;;;;;8.57;4.07;;;17.00;99.90;;;;;;4918229;29;20445;-74
2022/10/26 12:52:44;;;;;;;8.33;3.83;;;17.10;99.90;;;;;;4916978;29;20433;-74
2022/10/26 12:55:46;;;;;;;15.03;4.53;;;17.10;99.90;;;;;;4918152;29;20843;-74
2022/10/26 12:58:44;;;;;;;6.33;3.13;;;17.20;99.90;;;;;;4917287;29;20463;-75
2022/10/26 13:01:41;;;;;;;10.33;3.70;;;17.20;99.90;;;;;;4918305;29;20535;-75
2022/10/26 13:04:40;;;;;;;4.27;3.53;;;17.30;99.90;;;;;;4916649;29;20822;-74